Tiempo atmosférico en la estación meteorológica de Binissalem, Illes Balears (105 m.)



Fecha
DESCASC
Temp. máxima en grados centígrados (hora)
DESCASC
Temp. mínima en grados centígrados (hora)
DESCASC
Temp. media en grados centígrados
DESCASC
Racha de viento máxima en m/sg (hora)
DESCASC
Velocidad máxima media en intervalos de 10 minutos(hora)
DESCASC
Precipitaciones diarias en mm
DESCASC
Precipitaciones de 00:00 a 06:00 en mm
DESCASC
Precipitaciones de 06:00 a 12:00 en mm
DESCASC
Precipitaciones de 12:00 a 18:00 en mm
DESCASC
Precipitaciones de 18:00 a 24:00 en mm
DESCASC
06-07-2020 34.7 (13:50) 17 (06:00) 25.9 9.72 (16:40) 6.94 (17:40) 0 0 0 0 0
05-07-2020 32.8 (13:50) 15.6 (06:40) 24.2 11.39 (14:00) 6.11 (14:40) 0 0 0 0 0
04-07-2020 29.9 (15:30) 17.2 (06:50) 23.6 10.28 (14:20) 5.28 (12:20) 0 0 0 0 0
03-07-2020 28.8 (15:30) 20.4 (23:50) 24.6 13.33 (09:40) 8.06 (10:00) 0 0 0 0 0
02-07-2020 34.1 (15:30) 20.3 (00:00) 27.2 8.06 (18:20) 4.44 (14:40) 0 0 0 0 0
01-07-2020 35.5 (14:50) 19.6 (00:00) 27.6 9.72 (17:50) 7.22 (17:50) 0 0 0 0 0
30-06-2020 34.8 (15:00) 18.4 (00:00) 26.6 9.44 (17:20) 4.17 (16:10) 0 0 0 0 0
29-06-2020 33.3 (13:10) 19.5 (00:00) 26.4 8.06 (14:20) 5.28 (13:50) 0 0 0 0 0
28-06-2020 32.7 (13:00) 18.7 (00:00) 25.7 9.72 (13:30) 5.56 (14:00) 0 0 0 0 0
27-06-2020 32 (14:30) 21.8 (00:00) 26.9 9.72 (15:40) 3.61 (17:20) 0 0 0 0 0
26-06-2020 33.9 (15:00) 16.6 (00:00) 25.3 9.72 (15:20) 5 (18:00) 0 0 0 0 0
25-06-2020 34.5 (14:40) 17.4 (00:00) 25.9 9.17 (17:00) 5.56 (17:40) 0 0 0 0 0
24-06-2020 33.3 (14:40) 15.9 (00:00) 24.6 7.78 (16:10) 5 (16:00) 0 0 0 0 0
23-06-2020 31.1 (18:10) 16.2 (00:00) 23.7 8.33 (13:30) 4.44 (14:00) 0 0 0 0 0
22-06-2020 31 (13:10) 16.9 (00:00) 23.9 7.5 (13:10) 4.44 (17:50) 0 0 0 0 0
21-06-2020 31.6 (13:30) 16.1 (00:00) 23.9 8.33 (14:40) 5.28 (16:00) 0 0 0 0 0
20-06-2020 28.7 (13:10) 15.5 (00:00) 22.1 8.33 (14:50) 5.56 (14:40) 0 0 0 0 0
19-06-2020 28.1 (16:30) 17.6 (00:00) 22.9 8.61 (17:50) 6.11 (17:50) 0 0 0 0 0
18-06-2020 28.4 (13:30) 17.5 (00:00) 22.9 9.72 (15:20) 6.11 (15:10) 0 0 0 0 0
17-06-2020 26.1 (13:00) 14.4 (00:00) 20.3 8.06 (16:10) 5.28 (16:20) 0 0 0 0 0
16-06-2020 28.6 (14:40) 17.4 (00:00) 23 8.33 (18:10) 5.28 (18:10) 0 0 0 0 0
15-06-2020 28.6 (15:30) 13.8 (00:00) 21.2 7.78 (17:00) 5 (17:10) 0 0 0 0 0
14-06-2020 26.6 (12:40) 13.1 (00:00) 19.9 8.89 (13:30) 6.39 (18:50) 0 0 0 0 0
13-06-2020 26.6 (13:50) 17.5 (00:00) 22.1 11.39 (16:50) 6.94 (12:30) 0 0 0 0 0
12-06-2020 26.9 (14:40) 18 (00:00) 22.4 11.94 (16:00) 8.33 (16:10) 0 0 0 0 0
11-06-2020 24.9 (15:30) 16.7 (00:00) 20.8 10.83 (12:20) 7.22 (12:20) 0.2 0.2 0 0 0

Gráficas

Temp. máximas Temp. mínimas Temp. medias Precipitaciones Rachas de viento máximas Velocidades máximas media en intervalos de 10 minutos

Datos horarios

Fecha y hora oficial Temperatura (ºC) Velocidad del viento (km/h) Dirección del viento Racha (km/h) Dirección de racha Precipitación (mm) Presión (hPa) Tendencia (hPa) Humedad (%)
2020-07-10 23:00:00 24.8 8 Sudoeste 17 Sudoeste 0 -- -- 73
2020-07-10 22:00:00 25.5 13 Sudoeste 23 Oeste 0 -- -- 71
2020-07-10 21:00:00 29.3 5 Sudeste 17 Este 0 -- -- 42
2020-07-10 20:00:00 31.7 11 Este 26 Sudeste 0 -- -- 37
2020-07-10 19:00:00 33.9 15 Este 25 Este 0 -- -- 35
2020-07-10 18:00:00 34 9 Este 21 Este 0 -- -- 36
2020-07-10 17:00:00 32.4 12 Sudeste 26 Sudeste 0 -- -- 42
2020-07-10 16:00:00 32.8 8 Sudeste 23 Sudeste 0 -- -- 46
2020-07-10 15:00:00 33.1 8 Nordeste 27 Nordeste 0 -- -- 39
2020-07-10 14:00:00 29.9 13 Nordeste 24 Este 0 -- -- 48
2020-07-10 13:00:00 27.3 8 Sudoeste 20 Sudoeste 0 -- -- 59
2020-07-10 12:00:00 28.1 11 Sur 28 Este 0 -- -- 55
2020-07-10 11:00:00 29.1 9 Nordeste 26 Este 0 -- -- 55
2020-07-10 10:00:00 27.5 11 Nordeste 22 Nordeste 0 -- -- 56
2020-07-10 09:00:00 25.8 9 Nordeste 19 Nordeste 0 -- -- 58
2020-07-10 08:00:00 23.1 8 Nordeste 15 Norte 0 -- -- 72
2020-07-10 07:00:00 22.7 9 Este 22 Oeste 0 -- -- 72
2020-07-10 06:00:00 23.1 12 Nordeste 25 Nordeste 0 -- -- 69
2020-07-10 05:00:00 22.3 8 Nordeste 15 Norte 0 -- -- 60
2020-07-10 04:00:00 21.2 3 Norte 6 Este 0 -- -- 72
2020-07-10 03:00:00 20.9 0 Calma 11 Oeste 0 -- -- 71
2020-07-10 02:00:00 21 7 Oeste 11 Oeste 0 -- -- 73
2020-07-10 01:00:00 21.8 3 Oeste 10 Norte 0 -- -- 72
2020-07-10 00:00:00 22.6 6 Norte 9 Norte 0 -- -- 65
2020-07-09 23:00:00 23.3 4 Nordeste 6 Nordeste 0 -- -- 57
2020-07-09 22:00:00 24.7 7 Este 13 Sur 0 -- -- 53
2020-07-09 21:00:00 26.8 5 Nordeste 27 Este 0 -- -- 56
2020-07-09 20:00:00 28.4 15 Nordeste 28 Nordeste 0 -- -- 48
2020-07-09 19:00:00 29.4 12 Este 30 Este 0 -- -- 47
2020-07-09 18:00:00 29.8 16 Este 28 Este 0 -- -- 50
2020-07-09 17:00:00 30.3 3 Oeste 24 Oeste 0 -- -- 56
2020-07-09 16:00:00 32.7 4 Sudoeste 26 Este 0 -- -- 37
2020-07-09 15:00:00 34.1 13 Nordeste 28 Nordeste 0 -- -- 37
2020-07-09 14:00:00 33.5 6 Sudeste 15 Este 0 -- -- 38
2020-07-09 13:00:00 33 4 Norte 24 Nordeste 0 -- -- 38
2020-07-09 12:00:00 31.1 14 Este 30 Nordeste 0 -- -- 37
2020-07-09 11:00:00 30.8 6 Este 12 Este 0 -- -- 39
2020-07-09 10:00:00 27.8 5 Este 10 Este 0 -- -- 50
2020-07-09 09:00:00 25.8 3 Oeste 5 Sudoeste 0 -- -- 61
2020-07-09 08:00:00 22.4 4 Sudoeste 8 Oeste 0 -- -- 62
2020-07-09 07:00:00 19.2 6 Norte 9 Norte 0 -- -- 69
2020-07-09 06:00:00 18.7 4 Noroeste 9 Oeste 0 -- -- 78
2020-07-09 05:00:00 19.5 7 Noroeste 10 Oeste 0 -- -- 75
2020-07-09 04:00:00 20.1 0 Calma 8 Nordeste 0 -- -- 73
2020-07-09 03:00:00 21.3 4 Nordeste 12 Nordeste 0 -- -- 71
2020-07-09 02:00:00 21.3 5 Nordeste 9 Norte 0 -- -- 69
2020-07-09 01:00:00 21.8 4 Nordeste 9 Nordeste 0 -- -- 67
2020-07-09 00:00:00 22.9 5 Este 11 Nordeste 0 -- -- 65
2020-07-08 23:00:00 24.1 3 Norte 8 Sudoeste 0 -- -- 61
2020-07-08 22:00:00 25.1 8 Sudoeste 20 Oeste 0 -- -- 62
2020-07-08 21:00:00 26.3 11 Oeste 18 Oeste 0 -- -- 58
2020-07-08 20:00:00 29.4 7 Nordeste 17 Nordeste 0 -- -- 38
2020-07-08 19:00:00 30.7 10 Nordeste 22 Nordeste 0 -- -- 38
2020-07-08 18:00:00 31.9 15 Este 31 Este 0 -- -- 39
2020-07-08 17:00:00 31.3 8 Sur 25 Sudoeste 0 -- -- 43
2020-07-08 16:00:00 31 19 Sudoeste 29 Sudoeste 0 -- -- 45
2020-07-08 15:00:00 34.1 11 Este 23 Este 0 -- -- 33
2020-07-08 14:00:00 33.1 8 Este 22 Este 0 -- -- 31
2020-07-08 13:00:00 31.2 10 Sudeste 21 Este 0 -- -- 29
2020-07-08 12:00:00 30.2 11 Sudeste 19 Este 0 -- -- 33
2020-07-08 11:00:00 29.9 6 Este 17 Nordeste 0 -- -- 35
2020-07-08 10:00:00 28.7 9 Este 16 Este 0 -- -- 37
2020-07-08 09:00:00 25.3 3 Nordeste 6 Nordeste 0 -- -- 63
2020-07-08 08:00:00 20.4 0 Calma 3 Noroeste 0 -- -- 85
2020-07-08 07:00:00 17.8 2 Oeste 4 Sudoeste 0 -- -- 91
2020-07-08 06:00:00 18.2 0 Calma 6 Noroeste 0 -- -- 91
2020-07-08 05:00:00 19.1 4 Norte 6 Norte 0 -- -- 90
2020-07-08 04:00:00 19.4 3 Noroeste 6 Sudoeste 0 -- -- 90
2020-07-08 03:00:00 19.7 6 Sudoeste 8 Sudoeste 0 -- -- 88
2020-07-08 02:00:00 20.9 2 Noroeste 5 Nordeste 0 -- -- 85
2020-07-08 01:00:00 22 3 Nordeste 6 Nordeste 0 -- -- 83
2020-07-08 00:00:00 22.7 4 Norte 13 Nordeste 0 -- -- 80
2020-07-07 23:00:00 23.7 6 Nordeste 18 Nordeste 0 -- -- 76
2020-07-07 22:00:00 24.5 10 Nordeste 21 Nordeste 0 -- -- 73
2020-07-07 21:00:00 25.6 13 Nordeste 21 Nordeste 0 -- -- 69
2020-07-07 20:00:00 27 11 Nordeste 18 Este 0 -- -- 64
2020-07-07 19:00:00 28.8 9 Este 22 Sur 0 -- -- 59
2020-07-07 18:00:00 30 13 Sudoeste 28 Sudoeste 0 -- -- 53
2020-07-07 17:00:00 29.6 15 Sudoeste 29 Sudoeste 0 -- -- 50
2020-07-07 16:00:00 30.5 17 Sudoeste 28 Sudoeste 0 -- -- 51
2020-07-07 15:00:00 30 17 Sudoeste 34 Sur 0 -- -- 53
2020-07-07 14:00:00 30.1 17 Sudoeste 30 Sudoeste 0 -- -- 52
2020-07-07 13:00:00 29.8 15 Sudoeste 26 Sudoeste 0 -- -- 51
2020-07-07 12:00:00 28.6 14 Sudoeste 24 Sudoeste 0 -- -- 55
2020-07-07 11:00:00 27.3 11 Oeste 25 Sudoeste 0 -- -- 57
2020-07-07 10:00:00 26.4 9 Sudoeste 20 Sudoeste 0 -- -- 62
2020-07-07 09:00:00 24.9 6 Sur 12 Sudoeste 0 -- -- 74
2020-07-07 08:00:00 21.4 0 Calma 6 Sur 0 -- -- 85
2020-07-07 07:00:00 18.8 4 Sur 6 Sudeste 0 -- -- 91
2020-07-07 06:00:00 19.1 3 Noroeste 6 Oeste 0 -- -- 89
2020-07-07 05:00:00 19.3 4 Oeste 6 Oeste 0 -- -- 89
2020-07-07 04:00:00 19.9 0 Calma 8 Noroeste 0 -- -- 89
2020-07-07 03:00:00 20.8 0 Calma 5 Sudoeste 0 -- -- 89
2020-07-07 02:00:00 21.6 2 Norte 5 Norte 0 -- -- 89
2020-07-07 01:00:00 22 3 Nordeste 5 Este 0 -- -- 86
2020-07-07 00:00:00 22.7 4 Nordeste 8 Este 0 -- -- 83
2020-07-06 23:00:00 23.9 4 Nordeste 14 Este 0 -- -- 74
2020-07-06 22:00:00 24.8 6 Sudeste 18 Sur 0 -- -- 61
2020-07-06 21:00:00 27.5 11 Sudoeste 29 Sudoeste 0 -- -- 43
2020-07-06 20:00:00 28.9 22 Sudoeste 33 Sudoeste 0 -- -- 38
2020-07-06 19:00:00 29.9 24 Sudoeste 34 Sur 0 -- -- 37
2020-07-06 18:00:00 31 22 Sudoeste 34 Sudoeste 0 -- -- 34
2020-07-06 17:00:00 31.6 21 Sudoeste 35 Sudoeste 0 -- -- 34
2020-07-06 16:00:00 32.1 23 Sudoeste 33 Sur 0 -- -- 35
2020-07-06 15:00:00 32.8 22 Sur 32 Sur 0 -- -- 35
2020-07-06 14:00:00 33.8 11 Sur 28 Oeste 0 -- -- 32
2020-07-06 13:00:00 33.5 10 Sudeste 21 Este 0 -- -- 29
2020-07-06 12:00:00 33.4 11 Este 28 Sudeste 0 -- -- 28
2020-07-06 11:00:00 31.2 8 Este 17 Sudeste 0 -- -- 34
2020-07-06 10:00:00 29.2 3 Sur 10 Sudoeste 0 -- -- 41
2020-07-06 09:00:00 26.9 3 Este 5 Este 0 -- -- 47
2020-07-06 08:00:00 20.9 0 Calma 6 Nordeste 0 -- -- 68
2020-07-06 07:00:00 17.7 4 Nordeste 6 Nordeste 0 -- -- 79
2020-07-06 06:00:00 17 0 Calma 5 Noroeste 0 -- -- 78
2020-07-06 05:00:00 17.7 4 Noroeste 5 Noroeste 0 -- -- 77
2020-07-06 04:00:00 18.3 2 Noroeste 6 Sudoeste 0 -- -- 73
2020-07-06 03:00:00 19.4 5 Sudoeste 8 Oeste 0 -- -- 70
2020-07-06 02:00:00 20.4 5 Oeste 8 Oeste 0 -- -- 67
2020-07-06 01:00:00 20.9 4 Norte 9 Oeste 0 -- -- 69
2020-07-06 00:00:00 22.2 5 Oeste 12 Sudoeste 0 -- -- 68
2020-07-05 23:00:00 23.2 10 Sudoeste 15 Sudoeste 0 -- -- 65
2020-07-05 22:00:00 23.9 8 Sudoeste 19 Oeste 0 -- -- 64
2020-07-05 21:00:00 25.3 13 Sudoeste 24 Sudoeste 0 -- -- 57
2020-07-05 20:00:00 27 17 Sudoeste 26 Sudoeste 0 -- -- 52
2020-07-05 19:00:00 28.3 18 Sudoeste 28 Sudoeste 0 -- -- 46
2020-07-05 18:00:00 29 21 Sudoeste 31 Sudoeste 0 -- -- 45
2020-07-05 17:00:00 30.3 18 Oeste 31 Sudoeste 0 -- -- 38
2020-07-05 16:00:00 30.8 19 Sudoeste 33 Sudoeste 0 -- -- 38
2020-07-05 15:00:00 31.1 20 Sudoeste 32 Sudoeste 0 -- -- 35
2020-07-05 14:00:00 31.2 19 Sudoeste 41 Sur 0 -- -- 34
2020-07-05 13:00:00 30.9 8 Noroeste 17 Sudoeste 0 -- -- 34
2020-07-05 12:00:00 30.8 5 Nordeste 15 Este 0 -- -- 33
2020-07-05 11:00:00 29.4 7 Sudeste 11 Sudeste 0 -- -- 36
2020-07-05 10:00:00 27.1 5 Sur 11 Sudoeste 0 -- -- 48
2020-07-05 09:00:00 24.3 3 Sudoeste 5 Sur 0 -- -- 70
2020-07-05 08:00:00 19.5 3 Noroeste 4 Noroeste 0 -- -- 86
2020-07-05 07:00:00 16.2 0 Calma 3 Noroeste 0 -- -- 94
2020-07-05 06:00:00 16.4 0 Calma 4 Sudoeste 0 -- -- 93
2020-07-05 05:00:00 16.4 3 Sudoeste 4 Sudoeste 0 -- -- 92
2020-07-05 04:00:00 17.6 2 Noroeste 4 Noroeste 0 -- -- 92
2020-07-05 03:00:00 18.3 3 Noroeste 7 Noroeste 0 -- -- 91
2020-07-05 02:00:00 19 2 Noroeste 4 Noroeste 0 -- -- 89
2020-07-05 01:00:00 19.9 4 Norte 5 Norte 0 -- -- 87
2020-07-05 00:00:00 21.3 0 Calma 6 Este 0 -- -- 83
2020-07-04 23:00:00 22.2 3 Este 9 Oeste 0 -- -- 81
2020-07-04 22:00:00 23.1 5 Sudoeste 14 Sudoeste 0 -- -- 78
2020-07-04 21:00:00 24.4 10 Sudoeste 22 Sudoeste 0 -- -- 72
2020-07-04 20:00:00 26.1 10 Sur 15 Sudoeste 0 -- -- 65
2020-07-04 19:00:00 26.7 6 Este 16 Este 0 -- -- 63
2020-07-04 18:00:00 26.7 7 Este 24 Este 0 -- -- 62
2020-07-04 17:00:00 27.8 13 Este 26 Sudeste 0 -- -- 58
2020-07-04 16:00:00 28.8 6 Nordeste 26 Sudoeste 0 -- -- 54
2020-07-04 15:00:00 28.7 14 Oeste 37 Sudoeste 0 -- -- 54
2020-07-04 14:00:00 28.5 18 Oeste 27 Sudoeste 0 -- -- 54
2020-07-04 13:00:00 27.5 15 Sudoeste 28 Sudoeste 0 -- -- 56
2020-07-04 12:00:00 26.8 14 Sudoeste 25 Sudoeste 0 -- -- 59
2020-07-04 11:00:00 25.7 13 Sudoeste 25 Oeste 0 -- -- 62
2020-07-04 10:00:00 24.5 17 Sudoeste 29 Sudoeste 0 -- -- 65
2020-07-04 09:00:00 23.5 13 Sudoeste 18 Sudoeste 0 -- -- 67
2020-07-04 08:00:00 20.9 5 Oeste 8 Oeste 0 -- -- 74
2020-07-04 07:00:00 17.5 2 Sur 5 Sudoeste 0 -- -- 85
2020-07-04 06:00:00 17.8 4 Oeste 8 Sudoeste 0 -- -- 83
2020-07-04 05:00:00 18.2 4 Sudoeste 8 Oeste 0 -- -- 81
2020-07-04 04:00:00 17.6 4 Oeste 6 Oeste 0 -- -- 82
2020-07-04 03:00:00 18 3 Noroeste 5 Noroeste 0 -- -- 80
2020-07-04 02:00:00 18.5 4 Noroeste 6 Noroeste 0 -- -- 77
2020-07-04 01:00:00 19.6 0 Calma 9 Nordeste 0 -- -- 73
2020-07-04 00:00:00 20.4 6 Norte 10 Norte 0 -- -- 72
2020-07-03 23:00:00 21.2 4 Nordeste 10 Nordeste 0 -- -- 69
2020-07-03 22:00:00 22.5 6 Este 13 Nordeste 0 -- -- 64
2020-07-03 21:00:00 23.7 5 Nordeste 13 Este 0 -- -- 61
2020-07-03 20:00:00 24.4 6 Nordeste 20 Este 0 -- -- 59
2020-07-03 19:00:00 26.6 12 Este 23 Nordeste 0 -- -- 52
2020-07-03 18:00:00 27.1 12 Nordeste 28 Este 0 -- -- 51
2020-07-03 17:00:00 28 16 Este 27 Este 0 -- -- 50
2020-07-03 16:00:00 27.5 16 Este 35 Este 0 -- -- 52
2020-07-03 15:00:00 28.5 19 Nordeste 35 Nordeste 0 -- -- 49
2020-07-03 14:00:00 27.1 19 Nordeste 35 Nordeste 0 -- -- 54
2020-07-03 13:00:00 26.4 22 Nordeste 39 Nordeste 0 -- -- 55
2020-07-03 12:00:00 25.9 22 Nordeste 43 Nordeste 0 -- -- 56
2020-07-03 11:00:00 24.6 23 Nordeste 40 Nordeste 0 -- -- 58
2020-07-03 10:00:00 23.9 29 Nordeste 48 Nordeste 0 -- -- 57
2020-07-03 09:00:00 24.3 25 Nordeste 41 Nordeste 0 -- -- 62
2020-07-03 08:00:00 23.1 23 Nordeste 38 Nordeste 0 -- -- 67
2020-07-03 07:00:00 22 15 Nordeste 27 Nordeste 0 -- -- 74
2020-07-03 06:00:00 22.2 18 Nordeste 28 Nordeste 0 -- -- 78
2020-07-03 05:00:00 22.5 18 Nordeste 30 Este 0 -- -- 79
2020-07-03 04:00:00 23 17 Nordeste 31 Nordeste 0 -- -- 80
2020-07-03 03:00:00 23.7 13 Nordeste 32 Nordeste 0 -- -- 77
2020-07-03 02:00:00 24.2 14 Nordeste 27 Nordeste 0 -- -- 77
2020-07-03 01:00:00 24.3 15 Nordeste 32 Nordeste 0 -- -- 83
2020-07-03 00:00:00 24.5 10 Nordeste 21 Nordeste 0 -- -- 81
2020-07-02 23:00:00 24.3 14 Nordeste 24 Nordeste 0 -- -- 82
2020-07-02 22:00:00 25.1 14 Nordeste 23 Nordeste 0 -- -- 79
2020-07-02 21:00:00 27.5 11 Este 24 Este 0 -- -- 63
2020-07-02 20:00:00 30.2 12 Este 24 Nordeste 0 -- -- 57
2020-07-02 19:00:00 32 12 Este 29 Este 0 -- -- 51
2020-07-02 18:00:00 32.8 14 Este 22 Este 0 -- -- 52
2020-07-02 17:00:00 32.8 11 Este 26 Este 0 -- -- 54
2020-07-02 16:00:00 33.3 15 Este 26 Este 0 -- -- 50
2020-07-02 15:00:00 33.4 15 Nordeste 29 Este 0 -- -- 49
2020-07-02 14:00:00 32.4 12 Nordeste 26 Este 0 -- -- 51
2020-07-02 13:00:00 33.4 7 Sudeste 18 Sudeste 0 -- -- 46
2020-07-02 12:00:00 30.8 8 Este 21 Sudeste 0 -- -- 50
2020-07-02 11:00:00 29.7 9 Este 18 Nordeste 0 -- -- 54
2020-07-02 10:00:00 28.1 9 Este 16 Sudeste 0 -- -- 59
2020-07-02 09:00:00 25.7 4 Nordeste 9 Este 0 -- -- 81
2020-07-02 08:00:00 22.7 5 Sudoeste 8 Sudoeste 0 -- -- 94
2020-07-02 07:00:00 20.9 5 Sudoeste 9 Sudoeste 0 -- -- 95
2020-07-02 06:00:00 21 0 Calma 5 Este 0 -- -- 95
2020-07-02 05:00:00 20.9 5 Este 6 Este 0 -- -- 94
2020-07-02 04:00:00 21.6 4 Nordeste 7 Nordeste 0 -- -- 92
2020-07-02 03:00:00 21.9 4 Este 9 Nordeste 0 -- -- 92
2020-07-02 02:00:00 22.5 4 Este 12 Este 0 -- -- 91
2020-07-02 01:00:00 23 6 Este 9 Nordeste 0 -- -- 90
2020-07-02 00:00:00 23.6 3 Noroeste 9 Sudoeste 0 -- -- 89
2020-07-01 23:00:00 24.3 5 Oeste 10 Sudoeste 0 -- -- 85
2020-07-01 22:00:00 24.9 6 Sur 14 Sudoeste 0 -- -- 80
2020-07-01 21:00:00 27.1 8 Sur 27 Sudoeste 0 -- -- 69
2020-07-01 20:00:00 29.4 21 Sudoeste 35 Sur 0 -- -- 60
2020-07-01 19:00:00 32.6 20 Sudoeste 32 Sur 0 -- -- 43
2020-07-01 18:00:00 32.6 25 Sur 35 Sudoeste 0 -- -- 50
2020-07-01 17:00:00 34 22 Sudoeste 30 Sudoeste 0 -- -- 42
2020-07-01 16:00:00 34.6 18 Sur 28 Sur 0 -- -- 45
2020-07-01 15:00:00 34.4 9 Sudoeste 22 Noroeste 0 -- -- 45
2020-07-01 14:00:00 34.3 9 Este 21 Este 0 -- -- 47
2020-07-01 13:00:00 33 9 Este 19 Este 0 -- -- 49
2020-07-01 12:00:00 32.4 10 Este 20 Este 0 -- -- 48
2020-07-01 11:00:00 30.6 8 Nordeste 17 Este 0 -- -- 51
2020-07-01 10:00:00 28.1 11 Este 22 Nordeste 0 -- -- 60
2020-07-01 09:00:00 27.4 8 Nordeste 16 Nordeste 0 -- -- 58
2020-07-01 08:00:00 23.2 4 Nordeste 10 Nordeste 0 -- -- 75
2020-07-01 07:00:00 19.7 4 Este 10 Nordeste 0 -- -- 74
2020-07-01 06:00:00 20.2 4 Nordeste 9 Norte 0 -- -- 64
2020-07-01 05:00:00 20.5 6 Norte 12 Norte 0 -- -- 64
2020-07-01 04:00:00 21.1 5 Este 11 Este 0 -- -- 66
2020-07-01 03:00:00 21.7 7 Norte 11 Norte 0 -- -- 67
2020-07-01 02:00:00 21.7 3 Norte 8 Nordeste 0 -- -- 73
2020-07-01 01:00:00 22.7 4 Norte 10 Sudeste 0 -- -- 73
2020-07-01 00:00:00 23.4 6 Este 14 Este 0 -- -- 72
2020-06-30 23:00:00 24.4 6 Nordeste 15 Este 0 -- -- 68
2020-06-30 22:00:00 25.9 8 Este 19 Este 0 -- -- 62
2020-06-30 21:00:00 28.6 12 Este 17 Este 0 -- -- 50
2020-06-30 20:00:00 30.7 13 Sudeste 20 Sudeste 0 -- -- 43
2020-06-30 19:00:00 33 11 Sudeste 28 Sudeste 0 -- -- 35
2020-06-30 18:00:00 33.7 13 Sudeste 34 Sudeste 0 -- -- 34
2020-06-30 17:00:00 34.6 12 Sur 26 Sudeste 0 -- -- 33
2020-06-30 16:00:00 34 15 Sudeste 28 Sudeste 0 -- -- 37
2020-06-30 15:00:00 34.8 12 Este 25 Este 0 -- -- 39
2020-06-30 14:00:00 33.4 12 Sudeste 22 Sudeste 0 -- -- 43
2020-06-30 13:00:00 33.1 8 Sudeste 19 Este 0 -- -- 44
2020-06-30 12:00:00 31.4 6 Este 15 Este 0 -- -- 50
2020-06-30 11:00:00 29.4 8 Sudeste 19 Este 0 -- -- 59
2020-06-30 10:00:00 27.7 6 Este 13 Este 0 -- -- 64
2020-06-30 09:00:00 25.9 8 Este 15 Este 0 -- -- 75
2020-06-30 08:00:00 22.7 5 Nordeste 9 Nordeste 0 -- -- 85
2020-06-30 07:00:00 18.7 4 Norte 5 Norte 0 -- -- 89
2020-06-30 06:00:00 18.5 2 Norte 3 Noroeste 0 -- -- 90
2020-06-30 05:00:00 19.1 0 Calma 3 Noroeste 0 -- -- 90
2020-06-30 04:00:00 19.5 0 Calma 5 Norte 0 -- -- 89
2020-06-30 03:00:00 20.3 3 Noroeste 5 Noroeste 0 -- -- 89
2020-06-30 02:00:00 20.8 4 Noroeste 5 Noroeste 0 -- -- 89
2020-06-30 01:00:00 21.8 2 Norte 5 Sudeste 0 -- -- 88
2020-06-30 00:00:00 22.7 0 Calma 4 Nordeste 0 -- -- 86
2020-06-29 23:00:00 23.7 3 Sudeste 12 Oeste 0 -- -- 83
2020-06-29 22:00:00 24.6 8 Oeste 15 Oeste 0 -- -- 81
2020-06-29 21:00:00 25.9 10 Oeste 19 Sudoeste 0 -- -- 75
2020-06-29 20:00:00 27.3 14 Sudoeste 24 Oeste 0 -- -- 69
2020-06-29 19:00:00 29.4 16 Sudoeste 26 Sudoeste 0 -- -- 59
2020-06-29 18:00:00 31 17 Sudoeste 25 Sudoeste 0 -- -- 52
2020-06-29 17:00:00 31.4 13 Sudoeste 24 Sudoeste 0 -- -- 53
2020-06-29 16:00:00 31.6 16 Sudoeste 27 Oeste 0 -- -- 52
2020-06-29 15:00:00 31.8 15 Oeste 29 Sudoeste 0 -- -- 52
2020-06-29 14:00:00 31.5 19 Sudoeste 28 Sudoeste 0 -- -- 52
2020-06-29 13:00:00 32.3 6 Oeste 14 Noroeste 0 -- -- 43
2020-06-29 12:00:00 31.6 4 Sudeste 15 Sur 0 -- -- 45
2020-06-29 11:00:00 29.9 5 Sur 12 Sudoeste 0 -- -- 57
2020-06-29 10:00:00 27.6 5 Sudeste 10 Sudeste 0 -- -- 65
2020-06-29 09:00:00 25.7 4 Este 6 Sudeste 0 -- -- 74
2020-06-29 08:00:00 22.4 0 Calma 4 Norte 0 -- -- 89
2020-06-29 07:00:00 19.6 0 Calma 4 Oeste 0 -- -- 93
2020-06-29 06:00:00 19.9 2 Sudoeste 5 Sur 0 -- -- 93
2020-06-29 05:00:00 20.2 3 Norte 6 Noroeste 0 -- -- 93
2020-06-29 04:00:00 20.7 0 Calma 6 Oeste 0 -- -- 92
2020-06-29 03:00:00 21.3 4 Noroeste 7 Sudoeste 0 -- -- 92
2020-06-29 02:00:00 22 6 Sudoeste 9 Sudoeste 0 -- -- 91
2020-06-29 01:00:00 22.3 5 Sudoeste 9 Sudoeste 0 -- -- 90
2020-06-29 00:00:00 22.7 6 Sudoeste 14 Sudoeste 0 -- -- 87
2020-06-28 23:00:00 23.3 9 Sudoeste 17 Sudoeste 0 -- -- 84
2020-06-28 22:00:00 24.1 11 Sudoeste 18 Sudoeste 0 -- -- 79
2020-06-28 21:00:00 25.7 13 Sudoeste 18 Sudoeste 0 -- -- 71
2020-06-28 20:00:00 27.5 13 Sudoeste 20 Sudoeste 0 -- -- 61
2020-06-28 19:00:00 28.4 15 Sudoeste 27 Sudoeste 0 -- -- 62
2020-06-28 18:00:00 30.7 16 Sudoeste 26 Sudoeste 0 -- -- 54
2020-06-28 17:00:00 31.2 8 Sudoeste 21 Sur 0 -- -- 53
2020-06-28 16:00:00 31 12 Sudoeste 26 Sudoeste 0 -- -- 54
2020-06-28 15:00:00 30.7 17 Sudoeste 26 Sudoeste 0 -- -- 53
2020-06-28 14:00:00 30.7 20 Sudoeste 35 Sur 0 -- -- 55
2020-06-28 13:00:00 32.7 6 Nordeste 15 Este 0 -- -- 43
2020-06-28 12:00:00 30.4 6 Nordeste 17 Sudeste 0 -- -- 49
2020-06-28 11:00:00 28.8 4 Norte 14 Este 0 -- -- 58
2020-06-28 10:00:00 27.4 6 Este 17 Este 0 -- -- 65
2020-06-28 09:00:00 24.8 6 Este 10 Norte 0 -- -- 77
2020-06-28 08:00:00 20.9 4 Nordeste 6 Nordeste 0 -- -- 93
2020-06-28 07:00:00 19.1 0 Calma 8 Sudeste 0 -- -- 94
2020-06-28 06:00:00 19.4 5 Este 8 Sudeste 0 -- -- 93
2020-06-28 05:00:00 20.3 7 Sudoeste 9 Sudoeste 0 -- -- 91
2020-06-28 04:00:00 21.2 7 Oeste 9 Oeste 0 -- -- 90
2020-06-28 03:00:00 20.8 5 Oeste 7 Oeste 0 -- -- 90
2020-06-28 02:00:00 20.6 3 Sudoeste 5 Noroeste 0 -- -- 89
2020-06-28 01:00:00 21.1 3 Norte 4 Norte 0 -- -- 87
2020-06-28 00:00:00 21.9 3 Nordeste 6 Nordeste 0 -- -- 86
2020-06-27 23:00:00 23 4 Nordeste 12 Este 0 -- -- 83
2020-06-27 22:00:00 23.9 7 Nordeste 17 Nordeste 0 -- -- 79
2020-06-27 21:00:00 25.9 9 Nordeste 18 Nordeste 0 -- -- 70
2020-06-27 20:00:00 28.8 10 Este 22 Este 0 -- -- 60
2020-06-27 19:00:00 30.3 10 Este 20 Nordeste 0 -- -- 56
2020-06-27 18:00:00 31.1 11 Este 26 Este 0 -- -- 53
2020-06-27 17:00:00 30 11 Este 21 Sudeste 0 -- -- 56
2020-06-27 16:00:00 29.6 5 Sudoeste 35 Este 0 -- -- 56
2020-06-27 15:00:00 31.8 9 Sudeste 20 Sudeste 0 -- -- 47
2020-06-27 14:00:00 30.2 10 Este 24 Sudeste 0 -- -- 51
2020-06-27 13:00:00 29.7 9 Nordeste 21 Este 0 -- -- 55
2020-06-27 12:00:00 28.3 5 Este 13 Este 0 -- -- 55
2020-06-27 11:00:00 28.6 4 Este 14 Este 0 -- -- 54
2020-06-27 10:00:00 25.4 3 Sudeste 9 Este 0 -- -- 73
2020-06-27 09:00:00 23.9 3 Nordeste 8 Nordeste 0 -- -- 79
2020-06-27 08:00:00 22.8 3 Nordeste 9 Nordeste 0 -- -- 81
2020-06-27 07:00:00 22.3 6 Norte 11 Nordeste 0 -- -- 82
2020-06-27 06:00:00 21.8 4 Nordeste 12 Este 0 -- -- 83
2020-06-27 05:00:00 22.4 6 Este 11 Nordeste 0 -- -- 80
2020-06-27 04:00:00 22.9 6 Nordeste 10 Este 0 -- -- 78
2020-06-27 03:00:00 22.8 6 Nordeste 10 Norte 0 -- -- 80
2020-06-27 02:00:00 22.6 6 Nordeste 11 Nordeste 0 -- -- 81
2020-06-27 01:00:00 22.3 2 Este 9 Este 0 -- -- 82
2020-06-27 00:00:00 21.9 3 Nordeste 8 Nordeste 0 -- -- 82
2020-06-26 23:00:00 22.4 5 Este 10 Este 0 -- -- 74
2020-06-26 22:00:00 23.8 6 Este 14 Este 0 -- -- 65
2020-06-26 21:00:00 26.7 9 Este 23 Este 0 -- -- 50
2020-06-26 20:00:00 29.4 11 Este 26 Sudeste 0 -- -- 40
2020-06-26 19:00:00 31.1 18 Este 28 Este 0 -- -- 35
2020-06-26 18:00:00 32 18 Este 28 Este 0 -- -- 33
2020-06-26 17:00:00 32.6 16 Sudeste 28 Sudeste 0 -- -- 31
2020-06-26 16:00:00 33.2 13 Este 35 Sudeste 0 -- -- 30
2020-06-26 15:00:00 33.9 15 Este 31 Este 0 -- -- 30
2020-06-26 14:00:00 32.9 13 Sudeste 25 Este 0 -- -- 30
2020-06-26 13:00:00 32.1 14 Sudeste 25 Sudeste 0 -- -- 30
2020-06-26 12:00:00 31.6 11 Sudeste 23 Este 0 -- -- 32
2020-06-26 11:00:00 30.5 9 Este 18 Sudeste 0 -- -- 33
2020-06-26 10:00:00 29.3 5 Este 11 Sudeste 0 -- -- 34
2020-06-26 09:00:00 26.3 3 Sudeste 6 Este 0 -- -- 46
2020-06-26 08:00:00 22.3 3 Norte 8 Noroeste 0 -- -- 54
2020-06-26 07:00:00 17 2 Norte 7 Norte 0 -- -- 71
2020-06-26 06:00:00 16.9 3 Norte -- -- 0 -- -- 71
2020-06-26 05:00:00 17.2 2 Norte 5 Norte 0 -- -- 70
2020-06-26 04:00:00 17.8 0 Calma 6 Este 0 -- -- 69
2020-06-26 03:00:00 18.3 0 Calma 5 Norte 0 -- -- 66
2020-06-26 02:00:00 19.7 0 Calma 10 Noroeste 0 -- -- 60
2020-06-26 01:00:00 20.5 4 Noroeste 10 Norte 0 -- -- 56
2020-06-26 00:00:00 21.8 4 Noroeste 9 Norte 0 -- -- 55
2020-06-25 23:00:00 23 4 Nordeste 9 Nordeste 0 -- -- 53
2020-06-25 22:00:00 24.1 6 Nordeste 10 Este 0 -- -- 48
2020-06-25 21:00:00 27 9 Este 21 Este 0 -- -- 42
2020-06-25 20:00:00 29.3 13 Este 26 Este 0 -- -- 38
2020-06-25 19:00:00 30.6 16 Sudeste 28 Este 0 -- -- 35
2020-06-25 18:00:00 31.4 16 Sudeste 32 Sudeste 0 -- -- 32
2020-06-25 17:00:00 32.1 17 Sudeste 33 Este 0 -- -- 30
2020-06-25 16:00:00 33.1 15 Este 27 Este 0 -- -- 30
2020-06-25 15:00:00 33.9 14 Este 27 Este 0 -- -- 29
2020-06-25 14:00:00 32.6 10 Este 26 Este 0 -- -- 30
2020-06-25 13:00:00 32.3 12 Este 28 Este 0 -- -- 31
2020-06-25 12:00:00 32.1 11 Este 24 Este 0 -- -- 32
2020-06-25 11:00:00 30.9 8 Este 20 Este 0 -- -- 35
2020-06-25 10:00:00 29.1 8 Nordeste 15 Nordeste 0 -- -- 37
2020-06-25 09:00:00 26.4 5 Nordeste 10 Nordeste 0 -- -- 42
2020-06-25 08:00:00 21.9 3 Este 10 Norte 0 -- -- 56
2020-06-25 07:00:00 17.7 4 Noroeste 8 Norte 0 -- -- 71
2020-06-25 06:00:00 17.6 6 Oeste 10 Sudoeste 0 -- -- 72
2020-06-25 05:00:00 19.1 5 Nordeste 9 Nordeste 0 -- -- 62
2020-06-25 04:00:00 19.8 5 Norte 9 Norte 0 -- -- 61
2020-06-25 03:00:00 19.8 3 Oeste 6 Noroeste 0 -- -- 65
2020-06-25 02:00:00 19.8 6 Noroeste 9 Noroeste 0 -- -- 67
2020-06-25 01:00:00 20.6 5 Noroeste 8 Nordeste 0 -- -- 69
2020-06-25 00:00:00 21.7 0 Calma 8 Norte 0 -- -- 69
2020-06-24 23:00:00 22.9 4 Nordeste 6 Nordeste 0 -- -- 61
2020-06-24 22:00:00 24.7 5 Sudoeste 7 Sur 0 -- -- 50
2020-06-24 21:00:00 27.2 4 Sudoeste 12 Oeste 0 -- -- 43
2020-06-24 20:00:00 30.6 9 Este 20 Nordeste 0 -- -- 40
2020-06-24 19:00:00 31.3 13 Nordeste 27 Este 0 -- -- 40
2020-06-24 18:00:00 32.6 17 Nordeste 26 Este 0 -- -- 38
2020-06-24 17:00:00 31.1 13 Sudoeste 28 Sudoeste 0 -- -- 35
2020-06-24 16:00:00 31.5 18 Sudoeste 26 Sudoeste 0 -- -- 35
2020-06-24 15:00:00 33.1 9 Este 21 Nordeste 0 -- -- 35
2020-06-24 14:00:00 32.7 8 Nordeste 22 Norte 0 -- -- 35
2020-06-24 13:00:00 31.2 11 Este 27 Nordeste 0 -- -- 35
2020-06-24 12:00:00 30.2 12 Nordeste 23 Nordeste 0 -- -- 41
2020-06-24 11:00:00 29.2 11 Nordeste 21 Este 0 -- -- 42
2020-06-24 10:00:00 27.6 9 Nordeste 18 Este 0 -- -- 47
2020-06-24 09:00:00 25.5 8 Este 14 Este 0 -- -- 58
2020-06-24 08:00:00 21 6 Nordeste 9 Nordeste 0 -- -- 78
2020-06-24 07:00:00 16.4 5 Nordeste 7 Nordeste 0 -- -- 91
2020-06-24 06:00:00 16.1 0 Calma 3 Nordeste 0 -- -- 90
2020-06-24 05:00:00 16.9 2 Sudoeste 4 Sur 0 -- -- 90
2020-06-24 04:00:00 17.5 3 Sur 4 Sur 0 -- -- 88
2020-06-24 03:00:00 18.7 2 Norte 6 Norte 0 -- -- 85
2020-06-24 02:00:00 19 4 Norte 6 Norte 0 -- -- 85
2020-06-24 01:00:00 20.2 4 Norte 5 Norte 0 -- -- 85
2020-06-24 00:00:00 20.7 2 Norte 8 Este 0 -- -- 84
2020-06-23 23:00:00 21.7 6 Este 9 Este 0 -- -- 79
2020-06-23 22:00:00 23.4 5 Nordeste 15 Nordeste 0 -- -- 71
2020-06-23 21:00:00 26.5 8 Este 19 Este 0 -- -- 60
2020-06-23 20:00:00 28.9 11 Este 18 Este 0 -- -- 54
2020-06-23 19:00:00 29.7 7 Este 20 Nordeste 0 -- -- 50
2020-06-23 18:00:00 30.8 8 Este 20 Nordeste 0 -- -- 46
2020-06-23 17:00:00 29 10 Este 24 Este 0 -- -- 49
2020-06-23 16:00:00 30.7 7 Este 21 Este 0 -- -- 46
2020-06-23 15:00:00 30 16 Sudoeste 24 Sudoeste 0 -- -- 48
2020-06-23 14:00:00 30.6 16 Sur 30 Sudeste 0 -- -- 44
2020-06-23 13:00:00 29.9 7 Sudeste 17 Este 0 -- -- 42
2020-06-23 12:00:00 29.2 10 Este 18 Este 0 -- -- 45
2020-06-23 11:00:00 27.7 6 Este 14 Sudeste 0 -- -- 48
2020-06-23 10:00:00 26.2 5 Este 11 Este 0 -- -- 55
2020-06-23 09:00:00 23.6 4 Sudeste 8 Sudeste 0 -- -- 67
2020-06-23 08:00:00 19.7 0 Calma 4 Sudeste 0 -- -- 88
2020-06-23 07:00:00 16.5 0 Calma 5 Sudeste 0 -- -- 92
2020-06-23 06:00:00 16.4 4 Noroeste 6 Noroeste 0 -- -- 91
2020-06-23 05:00:00 17.1 3 Sudoeste 4 Sur 0 -- -- 90
2020-06-23 04:00:00 17.3 2 Sudoeste 4 Oeste 0 -- -- 88
2020-06-23 03:00:00 18 3 Oeste 5 Oeste 0 -- -- 87
2020-06-23 02:00:00 18.6 3 Oeste 5 Oeste 0 -- -- 86
2020-06-23 01:00:00 19.2 3 Norte 5 Norte 0 -- -- 83
2020-06-23 00:00:00 20 3 Norte 6 Noroeste 0 -- -- 83
2020-06-22 23:00:00 21.4 3 Sur 11 Sudoeste 0 -- -- 78
2020-06-22 22:00:00 22.7 8 Oeste 17 Sudoeste 0 -- -- 74
2020-06-22 21:00:00 23.9 12 Sudoeste 20 Sudoeste 0 -- -- 67
2020-06-22 20:00:00 25.5 14 Sudoeste 23 Sudoeste 0 -- -- 60
2020-06-22 19:00:00 27 15 Sudoeste 23 Oeste 0 -- -- 54
2020-06-22 18:00:00 28.2 15 Sudoeste 23 Sudoeste 0 -- -- 50
2020-06-22 17:00:00 27.8 6 Sur 20 Este 0 -- -- 52
2020-06-22 16:00:00 28.5 10 Este 22 Sudoeste 0 -- -- 48
2020-06-22 15:00:00 28.8 12 Sudoeste 25 Sudoeste 0 -- -- 49
2020-06-22 14:00:00 28.1 8 Sur 27 Nordeste 0 -- -- 51
2020-06-22 13:00:00 30.4 14 Este 23 Este 0 -- -- 42
2020-06-22 12:00:00 30 5 Sudeste 19 Este 0 -- -- 43
2020-06-22 11:00:00 29.1 12 Este 21 Nordeste 0 -- -- 42
2020-06-22 10:00:00 27.4 5 Sudeste 17 Este 0 -- -- 49
2020-06-22 09:00:00 25.1 4 Sur 6 Sudeste 0 -- -- 61
2020-06-22 08:00:00 20.1 0 Calma 4 Este 0 -- -- 81
2020-06-22 07:00:00 17.3 2 Sudoeste 7 Sudoeste 0 -- -- 88
2020-06-22 06:00:00 17.4 3 Sur 8 Oeste 0 -- -- 87
2020-06-22 05:00:00 17.9 3 Norte 10 Sudoeste 0 -- -- 86
2020-06-22 04:00:00 19 6 Oeste 11 Oeste 0 -- -- 83
2020-06-22 03:00:00 18.8 4 Noroeste 5 Noroeste 0 -- -- 86
2020-06-22 02:00:00 18.8 3 Noroeste 5 Noroeste 0 -- -- 84
2020-06-22 01:00:00 19.9 0 Calma 10 Nordeste 0 -- -- 80
2020-06-22 00:00:00 20.7 8 Nordeste 12 Nordeste 0 -- -- 79
2020-06-21 23:00:00 21.6 4 Noroeste 17 Sudoeste 0 -- -- 77
2020-06-21 22:00:00 22.7 10 Oeste 18 Sudoeste 0 -- -- 69
2020-06-21 21:00:00 24.7 11 Sudoeste 19 Sudoeste 0 -- -- 55
2020-06-21 20:00:00 26.8 14 Sudoeste 20 Sudoeste 0 -- -- 41
2020-06-21 19:00:00 27.9 15 Sudoeste 26 Sudoeste 0 -- -- 40
2020-06-21 18:00:00 28.6 17 Sudoeste 26 Sudoeste 0 -- -- 38
2020-06-21 17:00:00 28.6 18 Sudoeste 29 Sudoeste 0 -- -- 40
2020-06-21 16:00:00 29 19 Sudoeste 29 Sudoeste 0 -- -- 42
2020-06-21 15:00:00 29.3 18 Sudoeste 30 Sudoeste 0 -- -- 41
2020-06-21 14:00:00 30 12 Oeste 26 Nordeste 0 -- -- 41
2020-06-21 13:00:00 29.9 8 Sudeste 18 Este 0 -- -- 45
2020-06-21 12:00:00 28.5 9 Sudeste 16 Este 0 -- -- 48
2020-06-21 11:00:00 28 8 Nordeste 14 Este 0 -- -- 50
2020-06-21 10:00:00 25.6 4 Sudeste 10 Sudeste 0 -- -- 63
2020-06-21 09:00:00 23.6 0 Calma 4 Sudeste 0 -- -- 72
2020-06-21 08:00:00 19.3 0 Calma 3 Sur 0 -- -- 92
2020-06-21 07:00:00 16.3 2 Sur 5 Sudoeste 0 -- -- 94
2020-06-21 06:00:00 16.7 3 Nordeste 9 Oeste 0 -- -- 93
2020-06-21 05:00:00 16.7 2 Oeste 6 Oeste 0 -- -- 92
2020-06-21 04:00:00 16.8 4 Oeste 5 Oeste 0 -- -- 91
2020-06-21 03:00:00 17.6 3 Sudoeste 5 Sur 0 -- -- 90
2020-06-21 02:00:00 18.4 3 Este 5 Nordeste 0 -- -- 88
2020-06-21 01:00:00 19 3 Norte 5 Norte 0 -- -- 87
2020-06-21 00:00:00 20.1 0 Calma 10 Sudoeste 0 -- -- 86
2020-06-20 23:00:00 20.6 7 Oeste 10 Oeste 0 -- -- 83
2020-06-20 22:00:00 21.5 5 Sudoeste 20 Sudoeste 0 -- -- 78
2020-06-20 21:00:00 22.6 15 Sudoeste 21 Sudoeste 0 -- -- 72
2020-06-20 20:00:00 24.8 15 Sudoeste 20 Sudoeste 0 -- -- 62
2020-06-20 19:00:00 25.7 14 Sudoeste 23 Sudoeste 0 -- -- 58
2020-06-20 18:00:00 26.5 13 Sudoeste 28 Sudoeste 0 -- -- 58
2020-06-20 17:00:00 26.8 18 Sudoeste 29 Oeste 0 -- -- 55
2020-06-20 16:00:00 28 14 Sudoeste 26 Sudoeste 0 -- -- 49
2020-06-20 15:00:00 27.5 17 Sudoeste 30 Sudoeste 0 -- -- 51
2020-06-20 14:00:00 27.9 18 Sudoeste 27 Oeste 0 -- -- 53
2020-06-20 13:00:00 28.6 12 Sudoeste 23 Sudoeste 0 -- -- 49
2020-06-20 12:00:00 27.2 9 Sudoeste 17 Sudoeste 0 -- -- 55
2020-06-20 11:00:00 26.8 6 Sur 15 Sur 0 -- -- 52
2020-06-20 10:00:00 24.4 6 Sudeste 10 Sudeste 0 -- -- 63
2020-06-20 09:00:00 22.5 3 Oeste 5 Oeste 0 -- -- 73
2020-06-20 08:00:00 18.7 2 Sudoeste 4 Sudoeste 0 -- -- 92
2020-06-20 07:00:00 15.9 0 Calma 4 Sur 0 -- -- 94
2020-06-20 06:00:00 15.5 2 Sudoeste 4 Norte 0 -- -- 93
2020-06-20 05:00:00 16.3 2 Noroeste 5 Norte 0 -- -- 93
2020-06-20 04:00:00 17 5 Sudoeste 6 Sudoeste 0 -- -- 92
2020-06-20 03:00:00 17.9 0 Calma 6 Oeste 0 -- -- 90
2020-06-20 02:00:00 18.9 5 Oeste 9 Sudoeste 0 -- -- 88
2020-06-20 01:00:00 19.5 6 Oeste 13 Oeste 0 -- -- 86
2020-06-20 00:00:00 20.5 10 Sudoeste 17 Sudoeste 0 -- -- 81
2020-06-19 23:00:00 20.9 12 Sudoeste 19 Sudoeste 0 -- -- 78
2020-06-19 22:00:00 21.5 13 Sudoeste 22 Sudoeste 0 -- -- 76
2020-06-19 21:00:00 21.8 14 Sudoeste 24 Sudoeste 0 -- -- 73
2020-06-19 20:00:00 22.5 14 Oeste 23 Oeste 0 -- -- 71
2020-06-19 19:00:00 24.2 19 Oeste 29 Sudoeste 0 -- -- 64
2020-06-19 18:00:00 24.8 19 Sudoeste 31 Sudoeste 0 -- -- 62
2020-06-19 17:00:00 26.2 6 Nordeste 23 Nordeste 0 -- -- 52
2020-06-19 16:00:00 27.5 12 Nordeste 24 Este 0 -- -- 50
2020-06-19 15:00:00 27 13 Este 28 Este 0 -- -- 51
2020-06-19 14:00:00 26.9 13 Este 28 Nordeste 0 -- -- 51
2020-06-19 13:00:00 26.1 13 Nordeste 26 Este 0 -- -- 52
2020-06-19 12:00:00 23.9 13 Nordeste 23 Este 0 -- -- 59
2020-06-19 11:00:00 23.2 12 Este 21 Este 0 -- -- 67
2020-06-19 10:00:00 21.5 7 Nordeste 15 Nordeste 0 -- -- 80
2020-06-19 09:00:00 21.2 11 Nordeste 20 Nordeste 0 -- -- 83
2020-06-19 08:00:00 20.2 9 Nordeste 16 Nordeste 0 -- -- 90
2020-06-19 07:00:00 18.6 3 Nordeste 13 Sudeste 0 -- -- 92
2020-06-19 06:00:00 18.1 4 Nordeste 10 Norte 0 -- -- 91
2020-06-19 05:00:00 17.9 8 Norte 13 Norte 0 -- -- 93
2020-06-19 04:00:00 17.7 4 Sudeste 6 Este 0 -- -- 90
2020-06-19 03:00:00 19 4 Nordeste 13 Norte 0 -- -- 89
2020-06-19 02:00:00 18.6 3 Norte 9 Sudeste 0 -- -- 90
2020-06-19 01:00:00 18.7 0 Calma 8 Noroeste 0 -- -- 88
2020-06-19 00:00:00 19.6 0 Calma 7 Este 0 -- -- 87
2020-06-18 23:00:00 19.8 4 Este 9 Este 0 -- -- 85
2020-06-18 22:00:00 20.8 7 Nordeste 17 Este 0 -- -- 81
2020-06-18 21:00:00 22.1 12 Este 18 Este 0 -- -- 74
2020-06-18 20:00:00 23 13 Sudeste 32 Este 0 -- -- 71
2020-06-18 19:00:00 25.5 12 Nordeste 24 Nordeste 0 -- -- 62
2020-06-18 18:00:00 25.7 16 Nordeste 30 Este 0 -- -- 61
2020-06-18 17:00:00 25.8 18 Nordeste 32 Nordeste 0 -- -- 61
2020-06-18 16:00:00 26.5 19 Nordeste 35 Nordeste 0 -- -- 59
2020-06-18 15:00:00 25.4 18 Nordeste 32 Este 0 -- -- 63
2020-06-18 14:00:00 27.7 13 Este 33 Este 0 -- -- 56
2020-06-18 13:00:00 27.6 9 Sudoeste 24 Sudoeste 0 -- -- 45
2020-06-18 12:00:00 25.8 10 Sudoeste 21 Oeste 0 -- -- 56
2020-06-18 11:00:00 25.5 8 Sur 18 Oeste 0 -- -- 57
2020-06-18 10:00:00 24.1 6 Oeste 12 Sudoeste 0 -- -- 66
2020-06-18 09:00:00 22.6 5 Sudeste 9 Sudeste 0 -- -- 75
2020-06-18 08:00:00 20.3 2 Este 5 Este 0 -- -- 90
2020-06-18 07:00:00 17.7 5 Norte 8 Norte 0 -- -- 93
2020-06-18 06:00:00 18.3 2 Nordeste 6 Norte 0 -- -- 90
2020-06-18 05:00:00 19.4 3 Norte 5 Norte 0 -- -- 89
2020-06-18 04:00:00 19.4 3 Norte 5 Noroeste 0 -- -- 89
2020-06-18 03:00:00 19.8 2 Nordeste 5 Nordeste 0 -- -- 89
2020-06-18 02:00:00 20.2 0 Calma 6 Sudeste 0 -- -- 88
2020-06-18 01:00:00 20.2 3 Sudeste 6 Este 0 -- -- 87
2020-06-18 00:00:00 20.5 2 Nordeste 6 Nordeste 0 -- -- 86
2020-06-17 23:00:00 20.7 4 Nordeste 8 Nordeste 0 -- -- 85
2020-06-17 22:00:00 21 5 Este 14 Este 0 -- -- 82
2020-06-17 21:00:00 22 8 Este 15 Este 0 -- -- 73
2020-06-17 20:00:00 22.7 8 Este 21 Este 0 -- -- 69
2020-06-17 19:00:00 23.8 13 Este 29 Este 0 -- -- 67
2020-06-17 18:00:00 25.8 14 Nordeste 26 Nordeste 0 -- -- 62
2020-06-17 17:00:00 24.6 15 Este 29 Nordeste 0 -- -- 63
2020-06-17 16:00:00 23.8 17 Nordeste 28 Nordeste 0 -- -- 66
2020-06-17 15:00:00 24.5 13 Nordeste 26 Nordeste 0 -- -- 65
2020-06-17 14:00:00 25 14 Este 22 Este 0 -- -- 61
2020-06-17 13:00:00 26.1 5 Oeste 15 Sudeste 0 -- -- 51
2020-06-17 12:00:00 24.6 4 Noroeste 12 Sur 0 -- -- 54
2020-06-17 11:00:00 24 4 Norte 14 Este 0 -- -- 59
2020-06-17 10:00:00 22.9 5 Este 17 Este 0 -- -- 67
2020-06-17 09:00:00 21.9 8 Este 15 Nordeste 0 -- -- 75
2020-06-17 08:00:00 17.6 0 Calma 4 Norte 0 -- -- 95
2020-06-17 07:00:00 14.8 3 Oeste 5 Oeste 0 -- -- 95
2020-06-17 06:00:00 14.6 5 Sudoeste 8 Norte 0 -- -- 95
2020-06-17 05:00:00 14.8 3 Sudeste 8 Sudoeste 0 -- -- 95
2020-06-17 04:00:00 15.1 0 Calma 7 Norte 0 -- -- 93
2020-06-17 03:00:00 16 4 Norte 5 Norte 0 -- -- 93
2020-06-17 02:00:00 16.7 3 Nordeste 10 Norte 0 -- -- 92
2020-06-17 01:00:00 17.1 0 Calma 8 Noroeste 0 -- -- 90
2020-06-17 00:00:00 17.8 4 Oeste 5 Oeste 0 -- -- 88
2020-06-16 23:00:00 19 2 Este 8 Nordeste 0 -- -- 83
2020-06-16 22:00:00 20 4 Nordeste 17 Nordeste 0 -- -- 80
2020-06-16 21:00:00 21.2 11 Nordeste 20 Nordeste 0 -- -- 74
2020-06-16 20:00:00 22.9 10 Nordeste 22 Este 0 -- -- 71
2020-06-16 19:00:00 23 14 Nordeste 30 Nordeste 0 -- -- 70
2020-06-16 18:00:00 23.4 17 Nordeste 27 Nordeste 0 -- -- 69
2020-06-16 17:00:00 25.2 8 Nordeste 25 Nordeste 0 -- -- 66
2020-06-16 16:00:00 24.4 6 Nordeste 26 Nordeste 0 -- -- 67
2020-06-16 15:00:00 25.6 8 Sudeste 25 Este 0 -- -- 60
2020-06-16 14:00:00 26.6 11 Nordeste 26 Nordeste 0 -- -- 56
2020-06-16 13:00:00 26.1 12 Nordeste 24 Este 0 -- -- 57
2020-06-16 12:00:00 25.6 6 Este 20 Sudeste 0 -- -- 57
2020-06-16 11:00:00 25.7 6 Nordeste 26 Nordeste 0 -- -- 56
2020-06-16 10:00:00 23.4 11 Nordeste 20 Nordeste 0 -- -- 67
2020-06-16 09:00:00 21.7 11 Nordeste 17 Nordeste 0 -- -- 78
2020-06-16 08:00:00 19.7 7 Nordeste 13 Nordeste 0 -- -- 92
2020-06-16 07:00:00 17.7 3 Nordeste 5 Nordeste 0 -- -- 95
2020-06-16 06:00:00 17.5 2 Nordeste 4 Nordeste 0 -- -- 94
2020-06-16 05:00:00 17.5 0 Calma 6 Nordeste 0 -- -- 94
2020-06-16 04:00:00 17.6 3 Este 6 Sudeste 0 -- -- 94
2020-06-16 03:00:00 17.6 4 Noroeste 6 Noroeste 0 -- -- 93
2020-06-16 02:00:00 17.5 0 Calma 7 Nordeste 0 -- -- 92
2020-06-16 01:00:00 18.2 3 Noroeste 6 Oeste 0 -- -- 92
2020-06-16 00:00:00 19.5 2 Oeste 8 Sudoeste 0 -- -- 91
2020-06-15 23:00:00 20.3 4 Oeste 11 Sudoeste 0 -- -- 89
2020-06-15 22:00:00 21 6 Sudoeste 20 Sudoeste 0 -- -- 85
2020-06-15 21:00:00 22.4 15 Sudoeste 21 Sudoeste 0 -- -- 74
2020-06-15 20:00:00 24.2 15 Sudoeste 23 Oeste 0 -- -- 64
2020-06-15 19:00:00 25.4 16 Sudoeste 26 Sudoeste 0 -- -- 61
2020-06-15 18:00:00 26.8 16 Sudoeste 27 Sur 0 -- -- 48
2020-06-15 17:00:00 27.6 17 Sudoeste 28 Sudoeste 0 -- -- 46
2020-06-15 16:00:00 27.8 16 Sudoeste 25 Sudoeste 0 -- -- 35
2020-06-15 15:00:00 27.8 15 Sudoeste 27 Sudoeste 0 -- -- 31
2020-06-15 14:00:00 26.8 14 Sudoeste 23 Sudoeste 0 -- -- 55
2020-06-15 13:00:00 25.9 13 Sudoeste 24 Oeste 0 -- -- 60
2020-06-15 12:00:00 25.8 9 Sur 17 Sudoeste 0 -- -- 54
2020-06-15 11:00:00 24.5 6 Sudoeste 17 Este 0 -- -- 60
2020-06-15 10:00:00 23 7 Sudeste 13 Sudeste 0 -- -- 64
2020-06-15 09:00:00 22.3 6 Este 13 Este 0 -- -- 70
2020-06-15 08:00:00 18 3 Este 6 Este 0 -- -- 78
2020-06-15 07:00:00 14.1 3 Norte 4 Noroeste 0 -- -- 90
2020-06-15 06:00:00 14.7 3 Nordeste 8 Noroeste 0 -- -- 89
2020-06-15 05:00:00 15.1 6 Noroeste 8 Noroeste 0 -- -- 88
2020-06-15 04:00:00 16.3 0 Calma 13 Oeste 0 -- -- 84
2020-06-15 03:00:00 17.4 9 Oeste 18 Sudoeste 0 -- -- 81
2020-06-15 02:00:00 18.3 12 Oeste 19 Sudoeste 0 -- -- 81
2020-06-15 01:00:00 17.4 8 Sudoeste 12 Sudoeste 0 -- -- 90
2020-06-15 00:00:00 17.9 8 Sudoeste 13 Sudoeste 0 -- -- 87
2020-06-14 23:00:00 18.6 8 Sudoeste 13 Sudoeste 0 -- -- 85
2020-06-14 22:00:00 19.6 11 Sudoeste 27 Sudoeste 0 -- -- 80
2020-06-14 21:00:00 20.9 21 Sudoeste 29 Sudoeste 0 -- -- 72
2020-06-14 20:00:00 22.6 19 Sudoeste 30 Sudoeste 0 -- -- 63
2020-06-14 19:00:00 23.8 22 Sudoeste 32 Sudoeste 0 -- -- 52
2020-06-14 18:00:00 25 19 Sudoeste 31 Sudoeste 0 -- -- 50
2020-06-14 17:00:00 26.2 17 Sudoeste 29 Sudoeste 0 -- -- 43
2020-06-14 16:00:00 25.3 17 Sudoeste 32 Sudoeste 0 -- -- 42
2020-06-14 15:00:00 25.8 15 Sudoeste 28 Sudoeste 0 -- -- 41
2020-06-14 14:00:00 24.6 19 Sudoeste 32 Sudoeste 0 -- -- 43
2020-06-14 13:00:00 26 15 Oeste 26 Oeste 0 -- -- 44
2020-06-14 12:00:00 25.7 9 Oeste 18 Sur 0 -- -- 45
2020-06-14 11:00:00 25.3 7 Sudeste 16 Oeste 0 -- -- 45
2020-06-14 10:00:00 23.5 6 Sur 12 Sur 0 -- -- 53
2020-06-14 09:00:00 21.7 2 Oeste 5 Sudoeste 0 -- -- 60
2020-06-14 08:00:00 17 0 Calma 7 Sudoeste 0 -- -- 73
2020-06-14 07:00:00 13.5 5 Sudoeste 9 Sudoeste 0 -- -- 84
2020-06-14 06:00:00 13.7 6 Norte 12 Norte 0 -- -- 77
2020-06-14 05:00:00 13.4 2 Oeste 6 Sudoeste 0 -- -- 81
2020-06-14 04:00:00 14.3 2 Sudoeste 8 Sur 0 -- -- 74
2020-06-14 03:00:00 15.7 2 Sudoeste 14 Norte 0 -- -- 70
2020-06-14 02:00:00 16.7 9 Sudoeste 12 Oeste 0 -- -- 70
2020-06-14 01:00:00 17.7 8 Oeste 14 Oeste 0 -- -- 66
2020-06-14 00:00:00 18 10 Oeste 15 Oeste 0 -- -- 68
2020-06-13 23:00:00 18.8 7 Sudoeste 17 Sudoeste 0 -- -- 64
2020-06-13 22:00:00 20.1 13 Sudoeste 24 Sudoeste 0 -- -- 60
2020-06-13 21:00:00 21.4 17 Sudoeste 26 Sudoeste 0 -- -- 58
2020-06-13 20:00:00 23.9 18 Sudoeste 28 Oeste 0 -- -- 47
2020-06-13 19:00:00 25.2 19 Sudoeste 33 Sudoeste 0 -- -- 34
2020-06-13 18:00:00 25.9 21 Sudoeste 32 Sudoeste 0 -- -- 31
2020-06-13 17:00:00 25.7 14 Oeste 41 Oeste 0 -- -- 35
2020-06-13 16:00:00 26.5 14 Noroeste 32 Noroeste 0 -- -- 35
2020-06-13 15:00:00 26.6 16 Noroeste 30 Oeste 0 -- -- 40
2020-06-13 14:00:00 26.4 20 Oeste 36 Sudoeste 0 -- -- 37
2020-06-13 13:00:00 26.2 22 Sudoeste 36 Sudoeste 0 -- -- 36
2020-06-13 12:00:00 26.1 18 Sudoeste 32 Sudoeste 0 -- -- 39
2020-06-13 11:00:00 25 18 Oeste 32 Oeste 0 -- -- 39
2020-06-13 10:00:00 23.5 19 Oeste 28 Oeste 0 -- -- 51
2020-06-13 09:00:00 21.6 17 Sudoeste 24 Sudoeste 0 -- -- 76
2020-06-13 08:00:00 19.7 12 Oeste 21 Oeste 0 -- -- 90
2020-06-13 07:00:00 18.4 10 Sudoeste 18 Oeste 0 -- -- 93
2020-06-13 06:00:00 18.4 8 Sudoeste 15 Sudoeste 0 -- -- 93
2020-06-13 05:00:00 18 7 Sudoeste 10 Sudoeste 0 -- -- 93
2020-06-13 04:00:00 17.9 5 Oeste 8 Sudoeste 0 -- -- 92
2020-06-13 03:00:00 18.5 5 Sudoeste 9 Sudoeste 0 -- -- 92
2020-06-13 02:00:00 17.6 5 Oeste 8 Sudoeste 0 -- -- 93
2020-06-13 01:00:00 17.8 5 Sudoeste 9 Sudoeste 0 -- -- 91
2020-06-13 00:00:00 18 5 Oeste 10 Sudoeste 0 -- -- 90
2020-06-12 23:00:00 19.2 6 Sudoeste 18 Sudoeste 0 -- -- 86
2020-06-12 22:00:00 19.9 8 Oeste 19 Sudoeste 0 -- -- 82
2020-06-12 21:00:00 20.6 13 Sudoeste 24 Sudoeste 0 -- -- 77
2020-06-12 20:00:00 21.5 16 Sudoeste 28 Sudoeste 0 -- -- 73
2020-06-12 19:00:00 22.5 22 Sudoeste 32 Sudoeste 0 -- -- 69
2020-06-12 18:00:00 24.6 20 Sudoeste 38 Sur 0 -- -- 54
2020-06-12 17:00:00 25.3 26 Sudoeste 42 Sudoeste 0 -- -- 48
2020-06-12 16:00:00 25.8 28 Sudoeste 43 Sudoeste 0 -- -- 46
2020-06-12 15:00:00 26.1 27 Sudoeste 41 Sudoeste 0 -- -- 47
2020-06-12 14:00:00 26.1 22 Oeste 38 Sudoeste 0 -- -- 43
2020-06-12 13:00:00 26.4 22 Oeste 38 Oeste 0 -- -- 44
2020-06-12 12:00:00 25.5 22 Oeste 39 Noroeste 0 -- -- 43
2020-06-12 11:00:00 24.9 25 Oeste 42 Oeste 0 -- -- 46
2020-06-12 10:00:00 24.5 19 Oeste 35 Sudoeste 0 -- -- 48
2020-06-12 09:00:00 22.3 18 Sudoeste 27 Sudoeste 0 -- -- 77
2020-06-12 08:00:00 20.5 11 Oeste 16 Oeste 0 -- -- 89
2020-06-12 07:00:00 19 10 Sudoeste 17 Sudoeste 0 -- -- 90
2020-06-12 06:00:00 18.7 10 Sudoeste 18 Sudoeste 0 -- -- 88
2020-06-12 05:00:00 19.1 13 Sudoeste 19 Sudoeste 0 -- -- 84
2020-06-12 04:00:00 19.3 12 Sudoeste 20 Sudoeste 0 -- -- 83
2020-06-12 03:00:00 18.9 9 Sudoeste 14 Sudoeste 0 -- -- 84
2020-06-12 02:00:00 18 7 Oeste 11 Oeste 0 -- -- 87
2020-06-12 01:00:00 18.2 6 Sudoeste 13 Sudoeste 0 -- -- 89
2020-06-12 00:00:00 19 10 Sudoeste 14 Sudoeste 0 -- -- 89
2020-06-11 23:00:00 19.3 9 Sudoeste 13 Sudoeste 0 -- -- 89
2020-06-11 22:00:00 19.8 7 Oeste 17 Oeste 0 -- -- 85
2020-06-11 21:00:00 20.7 13 Sudoeste 24 Sudoeste 0 -- -- 79
2020-06-11 20:00:00 22.3 15 Oeste 25 Sudoeste 0 -- -- 72
2020-06-11 19:00:00 23 15 Oeste 30 Sudoeste 0 -- -- 69
2020-06-11 18:00:00 23.9 19 Oeste 34 Oeste 0 -- -- 65
2020-06-11 17:00:00 24.4 20 Sudoeste 32 Sudoeste 0 -- -- 63
2020-06-11 16:00:00 24.3 22 Sudoeste 35 Sudoeste 0 -- -- 61
2020-06-11 15:00:00 24.5 22 Sudoeste 39 Sudoeste 0 -- -- 61
2020-06-11 14:00:00 24.1 24 Sudoeste 36 Sudoeste 0 -- -- 62
2020-06-11 13:00:00 24.1 23 Sudoeste 39 Sudoeste 0 -- -- 61
2020-06-11 12:00:00 23.4 24 Sudoeste 35 Sudoeste 0 -- -- 62
2020-06-11 11:00:00 22 15 Sudoeste 24 Sudoeste 0 -- -- 74
2020-06-11 10:00:00 20.6 11 Sudoeste 19 Sur 0 -- -- 82
2020-06-11 09:00:00 19.1 6 Oeste 13 Oeste 0 -- -- 90
2020-06-11 08:00:00 17.9 3 Sudoeste 8 Oeste 0 -- -- 92
2020-06-11 07:00:00 17.4 5 Oeste 8 Oeste 0 -- -- 93
2020-06-11 06:00:00 17.3 3 Oeste 7 Oeste 0 -- -- 93
2020-06-11 05:00:00 16.9 4 Noroeste 8 Norte 0 -- -- 93
2020-06-11 04:00:00 16.8 4 Sudeste 13 Sudeste 0.2 -- -- 92
2020-06-11 03:00:00 17.3 3 Sur 6 Noroeste 0 -- -- 90
2020-06-11 02:00:00 17.3 0 Calma 9 Oeste 0 -- -- 89
2020-06-11 01:00:00 17.5 0 Calma 5 Nordeste 0 -- -- 84
2020-06-11 00:00:00 18 3 Nordeste 5 Este 0 -- -- 80